Time;durP1;ratioP1;P1;durP2;ratioP2;P2;SDS_P1;SDS_P2;PMS_P1;PMS_P2;Temp;Humidity;BMP_temperature;BMP_pressure;BME280_temperature;BME280_humidity;BME280_pressure;Samples;Min_cycle;Max_cycle;Signal;HPM_P1;HPM_P2
2023/08/07 00:00:23;;;;;;;2.58;1.25;;;486.70;2380.80;;;;;;5072195;28;20035;-71
2023/08/07 00:02:49;;;;;;;3.67;1.25;;;486.70;2380.80;;;;;;5072033;28;20153;-70
2023/08/07 00:05:16;;;;;;;2.40;1.30;;;486.60;2380.80;;;;;;5072024;28;20036;-71
2023/08/07 00:07:43;;;;;;;2.40;1.20;;;486.70;2380.80;;;;;;5072175;28;20089;-71
2023/08/07 00:10:09;;;;;;;3.17;1.30;;;486.70;2380.80;;;;;;5072828;28;20025;-71
2023/08/07 00:12:35;;;;;;;3.13;1.17;;;486.70;2380.80;;;;;;5071975;28;20024;-70
2023/08/07 00:15:05;;;;;;;3.05;1.45;;;486.70;2380.80;;;;;;5072131;28;20020;-71
2023/08/07 00:17:31;;;;;;;5.18;1.63;;;486.70;2380.80;;;;;;5071815;28;20041;-71
2023/08/07 00:19:56;;;;;;;3.03;1.50;;;486.70;2380.80;;;;;;5072548;28;20504;-71
2023/08/07 00:22:23;;;;;;;2.45;1.40;;;486.70;2380.80;;;;;;5075466;28;20019;-71
2023/08/07 00:24:48;;;;;;;2.10;1.30;;;486.70;2380.80;;;;;;5071359;28;20036;-72
2023/08/07 00:27:14;;;;;;;2.20;1.27;;;486.70;2380.80;;;;;;5075838;28;20025;-71
2023/08/07 00:29:40;;;;;;;4.38;1.33;;;486.70;2380.80;;;;;;5075432;28;20473;-72
2023/08/07 00:32:06;;;;;;;2.05;1.05;;;486.70;2380.80;;;;;;5075786;28;20028;-72
2023/08/07 00:34:32;;;;;;;3.05;1.40;;;486.70;2380.80;;;;;;5075631;28;20029;-72
2023/08/07 00:36:58;;;;;;;3.47;1.60;;;486.70;2380.80;;;;;;5076244;28;20527;-73
2023/08/07 00:39:24;;;;;;;3.38;1.48;;;486.70;2380.80;;;;;;5076378;28;20085;-74
2023/08/07 00:41:49;;;;;;;2.80;1.42;;;486.70;2380.80;;;;;;5062404;28;20359;-74
2023/08/07 00:44:15;;;;;;;3.97;1.75;;;486.80;2380.80;;;;;;5076208;28;20035;-71
2023/08/07 00:46:42;;;;;;;3.17;1.40;;;486.60;2380.80;;;;;;5075956;28;20102;-73
2023/08/07 00:49:11;;;;;;;5.43;1.67;;;486.60;2380.80;;;;;;5076007;28;20122;-76
2023/08/07 00:51:37;;;;;;;3.72;1.25;;;486.60;2380.80;;;;;;5075896;28;20438;-74
2023/08/07 00:54:04;;;;;;;5.00;1.40;;;486.50;2380.80;;;;;;5075977;28;20040;-77
2023/08/07 00:56:31;;;;;;;2.67;1.55;;;486.50;2380.80;;;;;;5075747;28;20067;-72
2023/08/07 00:59:00;;;;;;;2.80;1.50;;;486.40;2380.80;;;;;;5075750;28;20477;-73
2023/08/07 01:01:27;;;;;;;3.60;1.80;;;486.40;2380.80;;;;;;5075596;28;20032;-77
2023/08/07 01:03:53;;;;;;;3.45;1.48;;;486.40;2380.80;;;;;;5075966;28;20028;-76
2023/08/07 01:06:18;;;;;;;5.53;1.48;;;486.40;2380.80;;;;;;5075686;28;20025;-76
2023/08/07 01:08:45;;;;;;;2.30;1.40;;;486.40;2380.80;;;;;;5075688;28;20394;-72
2023/08/07 01:11:38;;;;;;;2.72;1.55;;;461.70;2380.80;;;;;;5075541;28;20017;-71
2023/08/07 01:14:25;;;;;;;4.43;1.38;;;486.40;2380.80;;;;;;5075505;28;20024;-71
2023/08/07 01:17:21;;;;;;;5.30;1.83;;;461.70;2380.80;;;;;;5075551;28;20016;-71
2023/08/07 01:19:49;;;;;;;5.10;1.40;;;461.70;2380.80;;;;;;4974660;28;20064;-71
2023/08/07 01:22:17;;;;;;;2.33;1.35;;;486.40;2380.80;;;;;;4974364;28;20022;-71
2023/08/07 01:24:47;;;;;;;3.63;1.50;;;486.40;2380.80;;;;;;4974698;28;20048;-77
2023/08/07 01:27:18;;;;;;;2.83;1.40;;;486.50;2380.80;;;;;;4974451;28;20033;-71
2023/08/07 01:29:50;;;;;;;5.22;1.38;;;486.50;2380.80;;;;;;4974374;28;20180;-71
2023/08/07 01:32:34;;;;;;;2.90;1.30;;;486.50;2380.80;;;;;;4973928;28;20058;-70
2023/08/07 01:35:02;;;;;;;4.38;1.23;;;486.50;2380.80;;;;;;4974406;28;20492;-71
2023/08/07 01:37:31;;;;;;;1.23;1.00;;;486.50;2380.80;;;;;;4974382;28;20452;-71
2023/08/07 01:40:00;;;;;;;2.35;1.17;;;486.50;2380.80;;;;;;4974216;28;20070;-73
2023/08/07 01:42:26;;;;;;;4.53;1.60;;;486.50;2380.80;;;;;;4974304;28;20027;-71
2023/08/07 01:44:52;;;;;;;1.95;1.05;;;486.50;2380.80;;;;;;4974308;28;20416;-75
2023/08/07 01:47:18;;;;;;;2.83;1.52;;;486.40;2380.80;;;;;;4973981;28;20046;-70
2023/08/07 01:49:44;;;;;;;2.00;1.20;;;486.40;2380.80;;;;;;4973725;28;20051;-71
2023/08/07 01:52:11;;;;;;;3.75;1.42;;;461.70;2380.80;;;;;;4973997;28;20101;-70
2023/08/07 01:54:36;;;;;;;5.38;1.52;;;461.70;2380.80;;;;;;4973845;28;20106;-71
2023/08/07 01:57:02;;;;;;;2.60;1.15;;;461.70;2380.80;;;;;;5050445;28;20116;-71
2023/08/07 01:59:28;;;;;;;2.20;1.35;;;461.70;2380.80;;;;;;5074614;28;20029;-72
2023/08/07 02:01:54;;;;;;;2.20;1.20;;;461.70;2380.80;;;;;;5074818;28;20036;-73
2023/08/07 02:04:19;;;;;;;5.40;1.38;;;461.70;2380.80;;;;;;5074344;28;20554;-74
2023/08/07 02:06:45;;;;;;;2.65;1.27;;;461.70;2380.80;;;;;;5074754;28;20457;-76
2023/08/07 02:09:10;;;;;;;2.97;1.20;;;486.40;2380.80;;;;;;5074325;28;20377;-71
2023/08/07 02:11:36;;;;;;;2.05;1.13;;;486.40;2380.80;;;;;;5074489;28;20103;-75
2023/08/07 02:14:02;;;;;;;2.92;1.25;;;486.50;2380.80;;;;;;5074441;28;20025;-72
2023/08/07 02:16:28;;;;;;;2.50;1.45;;;486.50;2380.80;;;;;;5074130;28;20012;-71
2023/08/07 02:18:54;;;;;;;4.60;1.77;;;486.60;2380.80;;;;;;5073993;28;20037;-75
2023/08/07 02:21:20;;;;;;;5.00;1.38;;;486.60;2380.80;;;;;;5074303;28;20402;-76
2023/08/07 02:23:45;;;;;;;5.78;1.40;;;486.50;2380.80;;;;;;5074106;28;20025;-72
2023/08/07 02:26:11;;;;;;;3.42;1.30;;;486.50;2380.80;;;;;;5074251;28;20374;-72
2023/08/07 02:28:37;;;;;;;4.68;1.23;;;486.50;2380.80;;;;;;5073960;28;20033;-71
2023/08/07 02:31:02;;;;;;;9.10;1.63;;;486.40;2380.80;;;;;;5073975;28;20021;-75
2023/08/07 02:33:30;;;;;;;4.18;1.30;;;486.40;2380.80;;;;;;5073993;28;20028;-74
2023/08/07 02:35:56;;;;;;;3.13;1.75;;;486.50;2380.80;;;;;;5074051;28;20099;-74
2023/08/07 02:38:22;;;;;;;4.93;1.80;;;486.40;2380.80;;;;;;5073463;28;20032;-72
2023/08/07 02:40:47;;;;;;;6.90;2.00;;;486.40;2380.80;;;;;;5074049;28;20420;-72
2023/08/07 02:43:13;;;;;;;5.25;1.60;;;461.70;2380.80;;;;;;5073069;28;20024;-71
2023/08/07 02:45:39;;;;;;;10.75;1.60;;;461.50;2380.80;;;;;;5073704;28;20470;-74
2023/08/07 02:48:05;;;;;;;3.08;1.52;;;461.50;2380.80;;;;;;5073653;28;20434;-72
2023/08/07 02:50:32;;;;;;;2.38;1.13;;;461.70;2380.80;;;;;;5073445;28;20087;-72
2023/08/07 02:52:59;;;;;;;5.30;1.95;;;461.50;2380.80;;;;;;5055559;28;20025;-71
2023/08/07 02:55:24;;;;;;;6.13;1.48;;;461.50;2380.80;;;;;;5073600;28;20498;-72
2023/08/07 02:57:50;;;;;;;5.07;1.90;;;461.50;2380.80;;;;;;5073628;28;20029;-77
2023/08/07 03:00:16;;;;;;;4.88;1.95;;;461.70;2380.80;;;;;;5055288;28;20040;-76
2023/08/07 03:02:41;;;;;;;2.25;1.50;;;461.60;2380.80;;;;;;5073624;28;20021;-72
2023/08/07 03:05:08;;;;;;;4.97;1.98;;;461.50;2380.80;;;;;;5073491;28;20518;-72
2023/08/07 03:07:34;;;;;;;6.20;2.00;;;;;;;;;;5073370;28;20020;-72
2023/08/07 03:10:00;;;;;;;6.80;2.40;;;461.20;2380.80;;;;;;5073435;28;20016;-72
2023/08/07 03:12:26;;;;;;;7.10;2.58;;;461.20;2380.80;;;;;;5073317;28;20035;-76
2023/08/07 03:14:51;;;;;;;5.53;1.90;;;461.40;2380.80;;;;;;5073230;28;20021;-76
2023/08/07 03:17:17;;;;;;;6.40;1.95;;;461.40;2380.80;;;;;;5073280;28;20028;-72
2023/08/07 03:19:43;;;;;;;3.92;1.63;;;461.40;2380.80;;;;;;5072972;28;20115;-72
2023/08/07 03:22:09;;;;;;;3.25;1.70;;;461.40;2380.80;;;;;;5073435;28;20454;-72
2023/08/07 03:24:35;;;;;;;8.63;1.95;;;461.50;2380.80;;;;;;5073098;28;20035;-72
2023/08/07 03:27:01;;;;;;;3.50;1.80;;;461.40;2380.80;;;;;;5060107;28;20021;-77
2023/08/07 03:29:27;;;;;;;5.30;1.95;;;461.40;2380.80;;;;;;5073087;28;20031;-71
2023/08/07 03:31:53;;;;;;;5.85;1.92;;;461.20;2380.80;;;;;;5073130;28;20071;-72
2023/08/07 03:34:18;;;;;;;5.93;2.03;;;461.20;2380.80;;;;;;5072787;28;20016;-71
2023/08/07 03:36:45;;;;;;;3.35;1.73;;;461.20;2380.80;;;;;;5072998;28;20059;-74
2023/08/07 03:39:12;;;;;;;4.68;2.03;;;461.20;2380.80;;;;;;5072874;28;20042;-72
2023/08/07 03:41:38;;;;;;;8.48;2.80;;;461.10;2380.80;;;;;;5072974;28;20044;-71
2023/08/07 03:44:04;;;;;;;4.07;2.17;;;460.90;2380.80;;;;;;5072852;28;20048;-71
2023/08/07 03:46:29;;;;;;;6.93;1.80;;;460.90;2380.80;;;;;;5072936;28;20023;-72
2023/08/07 03:48:55;;;;;;;5.25;2.30;;;460.90;2380.80;;;;;;5059373;28;20091;-77
2023/08/07 03:51:20;;;;;;;5.32;1.90;;;460.80;2380.80;;;;;;5054875;28;20025;-72
2023/08/07 03:53:46;;;;;;;3.67;2.10;;;436.10;2355.20;;;;;;5072849;28;20025;-75
2023/08/07 03:56:12;;;;;;;6.18;1.73;;;460.90;2380.80;;;;;;5076560;28;20021;-72
2023/08/07 03:58:38;;;;;;;3.60;1.88;;;436.10;2355.20;;;;;;5076867;28;20032;-71
2023/08/07 04:01:03;;;;;;;9.13;1.92;;;460.80;2380.80;;;;;;5077242;28;20495;-72
2023/08/07 04:03:29;;;;;;;7.30;1.77;;;460.80;2380.80;;;;;;5076905;28;20428;-73
2023/08/07 04:05:55;;;;;;;3.95;1.85;;;460.80;2380.80;;;;;;5076783;28;20021;-73
2023/08/07 04:08:21;;;;;;;7.03;1.80;;;460.80;2380.80;;;;;;5076721;28;20024;-71
2023/08/07 04:11:07;;;;;;;5.30;2.20;;;460.90;2380.80;;;;;;5076802;28;20058;-72
2023/08/07 04:13:32;;;;;;;4.40;2.22;;;436.10;2355.20;;;;;;5065940;28;20020;-72
2023/08/07 04:16:00;;;;;;;9.95;2.63;;;460.80;2380.80;;;;;;5076750;28;20043;-72
2023/08/07 04:18:26;;;;;;;6.53;2.97;;;436.10;2355.20;;;;;;5058060;28;20127;-71
2023/08/07 04:20:54;;;;;;;5.13;2.70;;;435.90;2355.20;;;;;;5076485;28;20985;-72
2023/08/07 04:23:20;;;;;;;3.97;2.63;;;435.90;2355.20;;;;;;5076547;28;20013;-71
2023/08/07 04:25:47;;;;;;;5.63;2.95;;;435.90;2355.20;;;;;;5076573;28;20108;-71
2023/08/07 04:28:13;;;;;;;5.00;2.65;;;436.10;2355.20;;;;;;5076636;28;20031;-72
2023/08/07 04:30:39;;;;;;;9.50;3.22;;;460.80;2380.80;;;;;;5076319;28;20100;-72
2023/08/07 04:33:04;;;;;;;11.32;3.25;;;460.90;2380.80;;;;;;5076308;28;20137;-72
2023/08/07 04:35:31;;;;;;;7.57;3.03;;;461.00;2380.80;;;;;;5073462;28;20146;-73
2023/08/07 04:37:56;;;;;;;6.03;2.80;;;461.00;2380.80;;;;;;5075640;28;20028;-71
2023/08/07 04:40:22;;;;;;;7.38;2.80;;;461.10;2380.80;;;;;;5075309;28;20085;-71
2023/08/07 04:42:51;;;;;;;6.65;2.65;;;461.20;2380.80;;;;;;5075530;28;20028;-72
2023/08/07 04:45:16;;;;;;;6.15;2.90;;;461.10;2380.80;;;;;;5075375;28;20489;-73
2023/08/07 04:47:42;;;;;;;6.75;2.50;;;461.10;2380.80;;;;;;5075329;28;20047;-70
2023/08/07 04:50:08;;;;;;;3.70;2.50;;;461.10;2380.80;;;;;;5075179;28;21083;-72
2023/08/07 04:52:37;;;;;;;6.18;3.00;;;461.20;2380.80;;;;;;5075956;28;20108;-73
2023/08/07 04:55:04;;;;;;;7.97;2.85;;;461.30;2380.80;;;;;;5074875;28;20032;-74
2023/08/07 04:57:30;;;;;;;4.25;2.65;;;461.40;2380.80;;;;;;5075309;28;20071;-74
2023/08/07 04:59:55;;;;;;;5.85;3.20;;;461.40;2380.80;;;;;;5073527;28;20072;-72
2023/08/07 05:02:21;;;;;;;7.25;3.28;;;461.40;2380.80;;;;;;5075236;28;20541;-76
2023/08/07 05:04:46;;;;;;;6.88;3.25;;;461.30;2380.80;;;;;;5073569;28;20413;-77
2023/08/07 05:07:12;;;;;;;6.10;2.38;;;461.40;2380.80;;;;;;5074485;28;20020;-71
2023/08/07 05:09:38;;;;;;;4.90;2.65;;;461.50;2380.80;;;;;;5075427;28;20429;-72
2023/08/07 05:12:05;;;;;;;5.13;2.78;;;;;;;;;;5075102;28;20028;-71
2023/08/07 05:14:30;;;;;;;4.57;2.60;;;486.60;2380.80;;;;;;5075322;28;20028;-71
2023/08/07 05:16:56;;;;;;;4.93;2.88;;;486.50;2380.80;;;;;;5074742;28;20462;-72
2023/08/07 05:19:22;;;;;;;4.95;2.20;;;486.50;2380.80;;;;;;5073846;28;20032;-72
2023/08/07 05:21:50;;;;;;;3.47;2.33;;;486.70;2380.80;;;;;;5074306;28;20021;-71
2023/08/07 05:24:17;;;;;;;4.85;2.35;;;486.80;2380.80;;;;;;5074532;28;20104;-71
2023/08/07 05:26:43;;;;;;;6.50;2.03;;;486.80;2380.80;;;;;;5074398;28;20474;-72
2023/08/07 05:29:08;;;;;;;4.40;2.15;;;486.90;2380.80;;;;;;5075379;28;20149;-71
2023/08/07 05:31:34;;;;;;;3.90;2.10;;;486.80;2380.80;;;;;;5074491;28;20165;-71
2023/08/07 05:34:00;;;;;;;4.80;2.13;;;487.00;2380.80;;;;;;5056470;28;20032;-72
2023/08/07 05:36:26;;;;;;;3.88;2.20;;;487.00;2380.80;;;;;;5073864;28;20573;-71
2023/08/07 05:38:51;;;;;;;3.42;2.55;;;486.90;2380.80;;;;;;5073616;28;20035;-72
2023/08/07 05:41:17;;;;;;;5.10;2.70;;;487.00;2380.80;;;;;;5074007;28;20377;-77
2023/08/07 05:43:43;;;;;;;4.35;2.30;;;487.00;2380.80;;;;;;5073878;28;20020;-71
2023/08/07 05:46:09;;;;;;;3.88;2.20;;;487.20;2380.80;;;;;;5074360;28;20020;-71
2023/08/07 05:48:35;;;;;;;2.92;1.90;;;487.30;2380.80;;;;;;5073887;28;20090;-72
2023/08/07 05:51:01;;;;;;;3.40;1.83;;;487.30;2380.80;;;;;;5074185;28;20409;-73
2023/08/07 05:53:27;;;;;;;3.97;1.83;;;487.30;2380.80;;;;;;5073955;28;20082;-73
2023/08/07 05:55:52;;;;;;;3.47;1.80;;;487.30;2380.80;;;;;;5074171;28;20082;-72
2023/08/07 05:58:18;;;;;;;2.72;1.80;;;512.00;2380.80;;;;;;5073387;28;20024;-72
2023/08/07 06:00:44;;;;;;;3.15;1.80;;;512.20;2380.80;;;;;;5073794;28;20031;-72
2023/08/07 06:03:10;;;;;;;2.33;1.58;;;512.30;2380.80;;;;;;5074432;28;20108;-72
2023/08/07 06:05:36;;;;;;;2.58;1.40;;;512.40;2380.80;;;;;;5073576;28;20032;-72
2023/08/07 06:08:01;;;;;;;3.58;1.70;;;512.60;2380.80;;;;;;5073594;28;20025;-77
2023/08/07 06:10:27;;;;;;;4.43;1.55;;;512.70;2380.80;;;;;;5073699;28;20549;-73
2023/08/07 06:12:53;;;;;;;3.92;1.90;;;512.90;2380.80;;;;;;5073497;28;20029;-75
2023/08/07 06:15:19;;;;;;;1.90;1.10;;;537.60;2406.40;;;;;;5055223;28;20043;-73
2023/08/07 06:17:45;;;;;;;3.17;1.30;;;537.80;2406.40;;;;;;5071898;28;20066;-73
2023/08/07 06:20:13;;;;;;;3.95;1.40;;;538.00;2406.40;;;;;;5073101;28;20047;-73
2023/08/07 06:22:38;;;;;;;4.25;1.67;;;538.10;2406.40;;;;;;5066344;28;20500;-76
2023/08/07 06:25:06;;;;;;;2.33;1.38;;;538.20;2406.40;;;;;;5068960;28;20028;-72
2023/08/07 06:27:32;;;;;;;1.98;1.10;;;538.10;2406.40;;;;;;5072980;28;20035;-72
2023/08/07 06:29:58;;;;;;;2.58;1.27;;;538.20;2406.40;;;;;;5069176;28;20385;-72
2023/08/07 06:32:26;;;;;;;5.63;1.48;;;538.10;2406.40;;;;;;5072976;28;20024;-74
2023/08/07 06:34:52;;;;;;;2.33;1.02;;;538.30;2406.40;;;;;;5072726;28;20051;-72
2023/08/07 06:37:18;;;;;;;6.63;1.65;;;538.20;2406.40;;;;;;5073137;28;20707;-72
2023/08/07 06:39:44;;;;;;;2.30;1.10;;;538.50;2406.40;;;;;;5070870;28;20044;-71
2023/08/07 06:42:10;;;;;;;3.67;1.40;;;538.50;2406.40;;;;;;5072868;28;20378;-74
2023/08/07 06:44:35;;;;;;;2.17;1.10;;;538.50;2406.40;;;;;;5072658;28;20035;-72
2023/08/07 06:47:01;;;;;;;2.17;1.05;;;563.30;2432.00;;;;;;5072280;28;20367;-72
2023/08/07 06:49:27;;;;;;;2.15;1.02;;;563.50;2432.00;;;;;;5072963;28;20052;-71
2023/08/07 06:51:53;;;;;;;1.88;1.02;;;563.30;2432.00;;;;;;5072652;28;20101;-72
2023/08/07 06:54:18;;;;;;;2.85;1.25;;;563.40;2432.00;;;;;;5072389;28;20141;-72
2023/08/07 06:56:44;;;;;;;2.22;1.45;;;563.30;2432.00;;;;;;5072763;28;20025;-72
2023/08/07 06:59:10;;;;;;;1.55;0.93;;;563.50;2432.00;;;;;;5072123;28;20037;-71
2023/08/07 07:01:36;;;;;;;2.63;1.45;;;563.60;2432.00;;;;;;5072109;28;20029;-71
2023/08/07 07:04:02;;;;;;;1.23;1.00;;;564.10;2432.00;;;;;;5072153;28;20071;-71
2023/08/07 07:06:27;;;;;;;2.28;1.20;;;564.10;2432.00;;;;;;5072358;28;20524;-71
2023/08/07 07:08:56;;;;;;;2.90;1.50;;;564.10;2432.00;;;;;;5072521;28;20032;-71
2023/08/07 07:11:24;;;;;;;2.90;1.67;;;563.90;2432.00;;;;;;5071091;28;20090;-71
2023/08/07 07:13:50;;;;;;;4.13;1.40;;;563.80;2432.00;;;;;;5072303;28;20036;-71
2023/08/07 07:16:21;;;;;;;2.35;1.55;;;563.50;2432.00;;;;;;5072239;28;20095;-71
2023/08/07 07:18:50;;;;;;;2.00;1.23;;;563.60;2432.00;;;;;;5071989;28;21383;-71
2023/08/07 07:21:16;;;;;;;1.48;1.10;;;563.60;2432.00;;;;;;5071237;28;20031;-71
2023/08/07 07:23:42;;;;;;;1.40;1.15;;;563.70;2432.00;;;;;;5071866;28;20029;-72
2023/08/07 07:26:07;;;;;;;1.60;1.10;;;563.70;2432.00;;;;;;5072210;28;20051;-72
2023/08/07 07:28:33;;;;;;;7.25;1.30;;;563.90;2432.00;;;;;;5071592;28;20074;-73
2023/08/07 07:30:59;;;;;;;4.68;1.02;;;563.80;2432.00;;;;;;5071989;28;20028;-71
2023/08/07 07:33:25;;;;;;;1.63;0.88;;;588.80;2432.00;;;;;;5072449;28;20382;-73
2023/08/07 07:35:51;;;;;;;2.22;1.30;;;589.30;2432.00;;;;;;5071969;28;20440;-71
2023/08/07 07:38:16;;;;;;;1.35;0.90;;;589.40;2432.00;;;;;;5071884;28;20032;-71
2023/08/07 07:40:42;;;;;;;1.80;1.20;;;589.70;2432.00;;;;;;5054208;28;20447;-71
2023/08/07 07:43:08;;;;;;;3.58;1.50;;;614.50;2432.00;;;;;;5071896;28;20489;-71
2023/08/07 07:45:35;;;;;;;2.08;1.23;;;614.50;2432.00;;;;;;5071778;28;20033;-70
2023/08/07 07:48:06;;;;;;;3.67;1.10;;;614.50;2432.00;;;;;;5071736;28;20439;-69
2023/08/07 07:50:33;;;;;;;1.55;1.20;;;614.80;2355.20;;;;;;5071608;28;20064;-71
2023/08/07 07:52:58;;;;;;;4.07;1.38;;;615.10;2380.80;;;;;;5071661;28;20039;-70
2023/08/07 07:55:25;;;;;;;4.57;1.17;;;640.00;2406.40;;;;;;5071968;28;20029;-70
2023/08/07 07:57:51;;;;;;;2.45;1.10;;;615.30;2380.80;;;;;;5072289;28;20040;-71
2023/08/07 08:00:17;;;;;;;1.00;0.90;;;640.20;2252.80;;;;;;5070692;28;20028;-70
2023/08/07 08:02:43;;;;;;;2.72;1.10;;;640.50;2227.20;;;;;;5087255;28;20448;-75
2023/08/07 08:05:12;;;;;;;0.80;0.80;;;640.40;2201.60;;;;;;5072072;28;20021;-70
2023/08/07 08:07:39;;;;;;;2.25;1.10;;;640.40;2201.60;;;;;;5069355;28;20052;-71
2023/08/07 08:10:08;;;;;;;1.08;0.90;;;640.20;2201.60;;;;;;5066380;28;20032;-72
2023/08/07 08:12:35;;;;;;;3.33;1.58;;;640.50;2150.40;;;;;;5071480;28;20032;-74
2023/08/07 08:15:00;;;;;;;2.28;1.33;;;640.70;2048.00;;;;;;5072202;28;20059;-73
2023/08/07 08:17:26;;;;;;;1.98;1.27;;;615.20;2201.60;;;;;;5072186;28;20060;-71
2023/08/07 08:19:52;;;;;;;3.00;1.50;;;614.80;2227.20;;;;;;5071213;28;20041;-72
2023/08/07 08:22:18;;;;;;;1.48;1.17;;;614.80;2278.40;;;;;;5071608;28;20116;-75
2023/08/07 08:24:44;;;;;;;2.53;1.50;;;614.50;2355.20;;;;;;5071097;28;20024;-73
2023/08/07 08:27:10;;;;;;;4.78;1.73;;;589.70;2432.00;;;;;;5071531;28;20070;-72
2023/08/07 08:29:36;;;;;;;5.47;1.88;;;614.50;2432.00;;;;;;5071441;28;20034;-73
2023/08/07 08:32:01;;;;;;;1.85;1.40;;;615.30;2432.00;;;;;;5069665;28;20118;-72
2023/08/07 08:34:27;;;;;;;2.38;1.40;;;640.60;2355.20;;;;;;5066346;28;20029;-71
2023/08/07 08:36:53;;;;;;;5.90;1.40;;;665.70;2201.60;;;;;;5068994;28;20077;-73
2023/08/07 08:39:19;;;;;;;5.05;1.70;;;640.60;2278.40;;;;;;5086959;28;20032;-75
2023/08/07 08:41:49;;;;;;;2.75;1.50;;;640.50;2252.80;;;;;;5072713;28;20486;-72
2023/08/07 08:44:16;;;;;;;2.70;1.23;;;615.10;2278.40;;;;;;5075436;28;20378;-72
2023/08/07 08:46:42;;;;;;;1.38;1.10;;;640.20;2201.60;;;;;;5075112;28;20024;-73
2023/08/07 08:49:09;;;;;;;2.13;1.35;;;665.60;2150.40;;;;;;5057201;28;20044;-72
2023/08/07 08:51:36;;;;;;;2.38;1.45;;;640.20;2201.60;;;;;;5074156;28;20101;-75
2023/08/07 08:54:02;;;;;;;2.33;1.60;;;640.30;2304.00;;;;;;5071175;28;20078;-72
2023/08/07 08:56:30;;;;;;;1.65;1.20;;;640.70;2329.60;;;;;;5075140;28;20032;-73
2023/08/07 08:58:55;;;;;;;1.77;1.10;;;665.60;2355.20;;;;;;5075076;28;20113;-74
2023/08/07 09:01:22;;;;;;;2.10;1.52;;;640.70;2201.60;;;;;;5074825;28;20108;-72
2023/08/07 09:03:48;;;;;;;2.03;1.20;;;640.20;2252.80;;;;;;5075268;28;20450;-73
2023/08/07 09:06:14;;;;;;;1.58;1.30;;;615.30;2227.20;;;;;;5075536;28;20052;-74
2023/08/07 09:08:44;;;;;;;1.55;1.05;;;615.10;2329.60;;;;;;5074732;28;20029;-73
2023/08/07 09:11:13;;;;;;;4.47;1.90;;;615.00;2278.40;;;;;;5074478;28;20064;-72
2023/08/07 09:13:42;;;;;;;3.10;1.15;;;615.10;2252.80;;;;;;5071132;28;20111;-73
2023/08/07 09:16:09;;;;;;;1.90;1.20;;;615.00;2252.80;;;;;;5074753;28;20094;-73
2023/08/07 09:18:35;;;;;;;2.03;1.30;;;614.70;2252.80;;;;;;5074577;28;20024;-73
2023/08/07 09:21:01;;;;;;;2.30;1.38;;;614.50;2304.00;;;;;;5074758;28;20524;-73
2023/08/07 09:23:27;;;;;;;5.65;1.30;;;614.50;2355.20;;;;;;5074577;28;20021;-73
2023/08/07 09:26:04;;;;;;;4.18;1.20;;;614.70;2252.80;;;;;;5074578;28;20484;-73
2023/08/07 09:28:31;;;;;;;3.28;1.25;;;614.70;2329.60;;;;;;5074685;28;20073;-72
2023/08/07 09:30:58;;;;;;;1.45;1.15;;;615.10;2380.80;;;;;;5074390;28;20028;-73
2023/08/07 09:33:28;;;;;;;2.13;1.40;;;615.30;2176.00;;;;;;5075085;28;20017;-73
2023/08/07 09:35:59;;;;;;;4.40;1.20;;;615.30;2227.20;;;;;;5073603;28;20035;-73
2023/08/07 09:38:29;;;;;;;2.00;1.45;;;640.10;2022.40;;;;;;5074653;28;20031;-72
2023/08/07 09:40:58;;;;;;;4.72;1.77;;;640.30;1971.20;;;;;;5067944;28;20143;-74
2023/08/07 09:43:24;;;;;;;2.08;1.27;;;640.40;2073.60;;;;;;5073547;28;20073;-72
2023/08/07 09:45:50;;;;;;;4.70;1.30;;;665.70;1971.20;;;;;;5072387;28;20108;-71
2023/08/07 09:48:24;;;;;;;2.80;1.40;;;665.60;1971.20;;;;;;5072650;28;20049;-72
2023/08/07 09:50:50;;;;;;;2.40;1.38;;;666.40;1920.00;;;;;;5073020;28;20029;-72
2023/08/07 09:53:16;;;;;;;1.83;1.38;;;691.50;1945.60;;;;;;5073999;28;20032;-72
2023/08/07 09:55:42;;;;;;;3.05;1.70;;;691.80;1843.20;;;;;;5073535;28;20398;-73
2023/08/07 09:58:17;;;;;;;3.10;1.45;;;691.20;1868.80;;;;;;5073963;28;20371;-72
2023/08/07 10:00:42;;;;;;;1.67;1.23;;;666.40;1868.80;;;;;;5074060;28;20045;-74
2023/08/07 10:03:08;;;;;;;5.00;1.48;;;691.30;1792.00;;;;;;5074489;28;20031;-72
2023/08/07 10:05:34;;;;;;;2.95;1.70;;;716.80;1766.40;;;;;;5071817;28;20030;-72
2023/08/07 10:08:00;;;;;;;3.38;1.45;;;717.20;1792.00;;;;;;5073484;28;20105;-72
2023/08/07 10:10:25;;;;;;;2.50;1.40;;;691.90;1715.20;;;;;;5073532;28;20450;-73
2023/08/07 10:12:52;;;;;;;3.22;1.95;;;691.50;1792.00;;;;;;5073519;28;20103;-72
2023/08/07 10:15:19;;;;;;;2.97;1.85;;;666.50;1766.40;;;;;;5073898;28;20436;-72
2023/08/07 10:17:45;;;;;;;3.30;1.67;;;691.60;1689.60;;;;;;5073347;28;20016;-72
2023/08/07 10:20:12;;;;;;;3.78;1.60;;;691.70;1664.00;;;;;;5073450;28;20120;-72
2023/08/07 10:22:39;;;;;;;2.45;1.48;;;691.90;1612.80;;;;;;5073468;28;20017;-73
2023/08/07 10:25:06;;;;;;;4.20;1.80;;;716.80;1664.00;;;;;;5073290;28;20028;-72
2023/08/07 10:27:35;;;;;;;2.92;1.63;;;717.10;1664.00;;;;;;5071402;28;20017;-71
2023/08/07 10:30:05;;;;;;;3.65;1.40;;;717.50;1689.60;;;;;;5073999;28;20028;-72
2023/08/07 10:32:32;;;;;;;2.05;1.50;;;717.70;1612.80;;;;;;5073127;28;20021;-72
2023/08/07 10:34:58;;;;;;;7.55;1.80;;;717.20;1587.20;;;;;;5072153;28;20039;-73
2023/08/07 10:37:42;;;;;;;10.23;2.05;;;717.50;1612.80;;;;;;5073352;28;20064;-73
2023/08/07 10:40:11;;;;;;;2.10;1.50;;;716.80;1664.00;;;;;;5073177;28;20090;-73
2023/08/07 10:42:51;;;;;;;1.65;1.35;;;716.90;1638.40;;;;;;5073187;28;20462;-72
2023/08/07 10:45:20;;;;;;;3.00;1.85;;;691.80;1664.00;;;;;;5069139;28;20032;-78
2023/08/07 10:48:10;;;;;;;3.83;1.92;;;692.10;1638.40;;;;;;5072385;28;20017;-74
2023/08/07 10:50:57;;;;;;;3.30;1.80;;;717.00;1638.40;;;;;;5072408;28;20040;-71
2023/08/07 10:53:34;;;;;;;1.95;1.50;;;717.50;1536.00;;;;;;5072526;28;20051;-73
2023/08/07 10:56:07;;;;;;;7.03;1.52;;;717.70;1536.00;;;;;;5073053;28;20074;-72
2023/08/07 10:58:37;;;;;;;1.92;1.40;;;742.50;1510.40;;;;;;5066208;28;20028;-71
2023/08/07 11:01:38;;;;;;;2.15;1.27;;;742.60;1536.00;;;;;;5068955;28;20024;-72
2023/08/07 11:04:09;;;;;;;2.88;1.90;;;742.60;1459.20;;;;;;5024735;28;20021;-72
2023/08/07 11:06:36;;;;;;;1.80;1.42;;;742.50;1510.40;;;;;;5030849;28;20120;-72
2023/08/07 11:09:04;;;;;;;4.32;1.50;;;716.80;1612.80;;;;;;5030839;28;20033;-72
2023/08/07 11:11:40;;;;;;;8.88;2.58;;;691.90;1612.80;;;;;;5031129;28;20151;-72
2023/08/07 11:14:07;;;;;;;2.50;1.55;;;692.10;1587.20;;;;;;5031090;28;20040;-71
2023/08/07 11:16:36;;;;;;;3.53;1.73;;;717.10;1561.60;;;;;;5013269;28;20064;-73
2023/08/07 11:19:03;;;;;;;3.75;1.63;;;717.70;1587.20;;;;;;5029720;28;20046;-74
2023/08/07 11:21:30;;;;;;;1.75;1.30;;;742.60;1536.00;;;;;;5029767;28;20034;-72
2023/08/07 11:23:56;;;;;;;4.13;1.60;;;743.00;1561.60;;;;;;5029858;28;20116;-72
2023/08/07 11:26:23;;;;;;;1.90;1.38;;;742.60;1587.20;;;;;;5029962;28;20096;-72
2023/08/07 11:28:49;;;;;;;2.53;1.75;;;717.70;1561.60;;;;;;5030080;28;20022;-74
2023/08/07 11:31:15;;;;;;;2.88;1.70;;;742.70;1433.60;;;;;;5028756;28;20045;-73
2023/08/07 11:33:41;;;;;;;2.30;1.40;;;743.00;1408.00;;;;;;5029851;28;20426;-71
2023/08/07 11:36:14;;;;;;;3.50;1.73;;;742.50;1459.20;;;;;;5030100;28;20469;-72
2023/08/07 11:38:44;;;;;;;6.75;1.67;;;717.10;1510.40;;;;;;5061975;28;20044;-71
2023/08/07 11:41:11;;;;;;;1.83;1.30;;;716.80;1484.80;;;;;;5071723;28;20020;-72
2023/08/07 11:43:38;;;;;;;5.60;1.88;;;691.80;1510.40;;;;;;5071242;28;20121;-72
2023/08/07 11:46:09;;;;;;;2.50;1.70;;;691.70;1510.40;;;;;;5069177;28;20058;-73
2023/08/07 11:48:37;;;;;;;2.33;1.70;;;691.20;1561.60;;;;;;5069163;28;20039;-72
2023/08/07 11:51:04;;;;;;;2.92;1.63;;;666.50;1561.60;;;;;;5070830;28;20040;-72
2023/08/07 11:53:32;;;;;;;2.47;1.50;;;691.50;1561.60;;;;;;5071698;28;20111;-72
2023/08/07 11:56:03;;;;;;;2.70;1.77;;;691.40;1561.60;;;;;;5071697;28;20059;-72
2023/08/07 11:58:35;;;;;;;5.93;1.58;;;691.40;1561.60;;;;;;5071140;28;20021;-72
2023/08/07 12:01:15;;;;;;;2.60;1.90;;;691.60;1612.80;;;;;;5071491;28;20031;-71
2023/08/07 12:04:07;;;;;;;5.60;1.85;;;716.90;1536.00;;;;;;5052537;28;20435;-73
2023/08/07 12:06:35;;;;;;;1.95;1.55;;;717.50;1536.00;;;;;;5066539;28;20490;-72
2023/08/07 12:09:02;;;;;;;3.20;1.92;;;742.60;1561.60;;;;;;5071540;28;20466;-71
2023/08/07 12:11:29;;;;;;;5.15;1.85;;;742.80;1510.40;;;;;;5071824;28;20044;-71
2023/08/07 12:13:55;;;;;;;5.75;1.60;;;742.50;1587.20;;;;;;5071358;28;20021;-70
2023/08/07 12:16:21;;;;;;;2.30;1.45;;;717.40;1510.40;;;;;;5073856;28;20040;-70
2023/08/07 12:18:48;;;;;;;3.38;1.52;;;717.30;1510.40;;;;;;5069560;28;20036;-73